sensor_id;sensor_type;location;lat;lon;timestamp;P1;durP1;ratioP1;P2;durP2;ratioP2
9526;SDS011;4802;51.494;6.770;2023-05-07T00:10:25;6.23;;;5.63;;
9526;SDS011;4802;51.494;6.770;2023-05-07T00:23:49;6.27;;;5.67;;
9526;SDS011;4802;51.494;6.770;2023-05-07T00:26:23;9.23;;;6.93;;
9526;SDS011;4802;51.494;6.770;2023-05-07T00:28:54;7.67;;;6.67;;
9526;SDS011;4802;51.494;6.770;2023-05-07T00:31:29;9.57;;;6.20;;
9526;SDS011;4802;51.494;6.770;2023-05-07T00:34:01;9.83;;;6.17;;
9526;SDS011;4802;51.494;6.770;2023-05-07T00:36:34;9.67;;;6.90;;
9526;SDS011;4802;51.494;6.770;2023-05-07T00:39:04;9.27;;;6.50;;
9526;SDS011;4802;51.494;6.770;2023-05-07T00:41:44;7.43;;;6.70;;
9526;SDS011;4802;51.494;6.770;2023-05-07T00:44:14;10.40;;;6.73;;
9526;SDS011;4802;51.494;6.770;2023-05-07T00:46:44;13.90;;;8.20;;
9526;SDS011;4802;51.494;6.770;2023-05-07T00:49:16;7.33;;;6.63;;
9526;SDS011;4802;51.494;6.770;2023-05-07T00:51:50;11.10;;;6.73;;
9526;SDS011;4802;51.494;6.770;2023-05-07T00:54:21;7.57;;;6.20;;
9526;SDS011;4802;51.494;6.770;2023-05-07T00:56:52;17.40;;;7.50;;
9526;SDS011;4802;51.494;6.770;2023-05-07T00:59:22;7.07;;;6.37;;
9526;SDS011;4802;51.494;6.770;2023-05-07T01:01:54;10.13;;;8.40;;
9526;SDS011;4802;51.494;6.770;2023-05-07T01:04:30;11.90;;;7.90;;
9526;SDS011;4802;51.494;6.770;2023-05-07T01:07:02;9.07;;;7.30;;
9526;SDS011;4802;51.494;6.770;2023-05-07T01:09:35;10.13;;;6.53;;
9526;SDS011;4802;51.494;6.770;2023-05-07T01:12:06;8.10;;;5.97;;
9526;SDS011;4802;51.494;6.770;2023-05-07T01:14:36;12.67;;;7.13;;
9526;SDS011;4802;51.494;6.770;2023-05-07T01:17:05;11.07;;;7.50;;
9526;SDS011;4802;51.494;6.770;2023-05-07T01:19:35;7.50;;;5.97;;
9526;SDS011;4802;51.494;6.770;2023-05-07T01:22:07;7.93;;;6.67;;
9526;SDS011;4802;51.494;6.770;2023-05-07T01:24:38;9.90;;;8.20;;
9526;SDS011;4802;51.494;6.770;2023-05-07T01:27:07;11.07;;;6.97;;
9526;SDS011;4802;51.494;6.770;2023-05-07T01:29:36;9.30;;;5.63;;
9526;SDS011;4802;51.494;6.770;2023-05-07T01:32:05;10.40;;;7.30;;
9526;SDS011;4802;51.494;6.770;2023-05-07T01:34:34;6.40;;;5.90;;
9526;SDS011;4802;51.494;6.770;2023-05-07T01:37:05;9.53;;;6.50;;
9526;SDS011;4802;51.494;6.770;2023-05-07T01:39:35;9.77;;;7.63;;
9526;SDS011;4802;51.494;6.770;2023-05-07T01:42:06;8.97;;;7.40;;
9526;SDS011;4802;51.494;6.770;2023-05-07T01:44:35;15.50;;;6.20;;
9526;SDS011;4802;51.494;6.770;2023-05-07T01:47:04;10.57;;;7.60;;
9526;SDS011;4802;51.494;6.770;2023-05-07T01:49:35;10.30;;;7.53;;
9526;SDS011;4802;51.494;6.770;2023-05-07T01:52:04;9.53;;;7.03;;
9526;SDS011;4802;51.494;6.770;2023-05-07T01:54:33;12.57;;;8.17;;
9526;SDS011;4802;51.494;6.770;2023-05-07T01:57:02;9.83;;;8.60;;
9526;SDS011;4802;51.494;6.770;2023-05-07T01:59:33;14.47;;;7.53;;
9526;SDS011;4802;51.494;6.770;2023-05-07T02:02:02;9.50;;;8.37;;
9526;SDS011;4802;51.494;6.770;2023-05-07T02:04:31;9.37;;;8.17;;
9526;SDS011;4802;51.494;6.770;2023-05-07T02:07:00;13.80;;;9.27;;
9526;SDS011;4802;51.494;6.770;2023-05-07T02:09:29;10.67;;;9.37;;
9526;SDS011;4802;51.494;6.770;2023-05-07T02:11:59;11.17;;;8.10;;
9526;SDS011;4802;51.494;6.770;2023-05-07T02:14:28;12.97;;;8.33;;
9526;SDS011;4802;51.494;6.770;2023-05-07T02:17:01;12.50;;;9.50;;
9526;SDS011;4802;51.494;6.770;2023-05-07T02:19:30;8.43;;;7.53;;
9526;SDS011;4802;51.494;6.770;2023-05-07T02:21:59;8.47;;;7.57;;
9526;SDS011;4802;51.494;6.770;2023-05-07T02:24:28;13.80;;;9.33;;
9526;SDS011;4802;51.494;6.770;2023-05-07T02:26:57;11.23;;;9.60;;
9526;SDS011;4802;51.494;6.770;2023-05-07T02:29:26;16.30;;;8.80;;
9526;SDS011;4802;51.494;6.770;2023-05-07T02:31:55;13.73;;;8.27;;
9526;SDS011;4802;51.494;6.770;2023-05-07T02:34:25;9.90;;;8.17;;
9526;SDS011;4802;51.494;6.770;2023-05-07T02:36:54;9.53;;;7.73;;
9526;SDS011;4802;51.494;6.770;2023-05-07T02:39:23;8.67;;;7.80;;
9526;SDS011;4802;51.494;6.770;2023-05-07T02:41:52;11.30;;;8.07;;
9526;SDS011;4802;51.494;6.770;2023-05-07T02:44:22;13.63;;;9.20;;
9526;SDS011;4802;51.494;6.770;2023-05-07T02:46:50;12.00;;;8.37;;
9526;SDS011;4802;51.494;6.770;2023-05-07T02:49:19;9.30;;;7.70;;
9526;SDS011;4802;51.494;6.770;2023-05-07T02:54:54;16.07;;;9.10;;
9526;SDS011;4802;51.494;6.770;2023-05-07T02:57:37;13.73;;;9.27;;
9526;SDS011;4802;51.494;6.770;2023-05-07T03:00:13;15.30;;;9.77;;
9526;SDS011;4802;51.494;6.770;2023-05-07T03:02:42;12.53;;;8.57;;
9526;SDS011;4802;51.494;6.770;2023-05-07T03:05:11;9.30;;;8.20;;
9526;SDS011;4802;51.494;6.770;2023-05-07T03:07:41;14.70;;;8.77;;
9526;SDS011;4802;51.494;6.770;2023-05-07T03:10:14;13.60;;;8.67;;
9526;SDS011;4802;51.494;6.770;2023-05-07T03:12:45;10.33;;;7.23;;
9526;SDS011;4802;51.494;6.770;2023-05-07T03:15:14;15.03;;;9.07;;
9526;SDS011;4802;51.494;6.770;2023-05-07T03:17:43;12.67;;;8.50;;
9526;SDS011;4802;51.494;6.770;2023-05-07T03:20:12;14.20;;;11.13;;
9526;SDS011;4802;51.494;6.770;2023-05-07T03:22:41;14.50;;;8.80;;
9526;SDS011;4802;51.494;6.770;2023-05-07T03:25:10;15.50;;;10.20;;
9526;SDS011;4802;51.494;6.770;2023-05-07T03:27:41;11.83;;;8.43;;
9526;SDS011;4802;51.494;6.770;2023-05-07T03:30:11;11.87;;;8.07;;
9526;SDS011;4802;51.494;6.770;2023-05-07T03:32:40;14.77;;;9.30;;
9526;SDS011;4802;51.494;6.770;2023-05-07T03:35:09;10.53;;;8.57;;
9526;SDS011;4802;51.494;6.770;2023-05-07T03:37:38;12.67;;;10.47;;
9526;SDS011;4802;51.494;6.770;2023-05-07T03:40:07;12.97;;;8.03;;
9526;SDS011;4802;51.494;6.770;2023-05-07T03:42:39;15.90;;;10.03;;
9526;SDS011;4802;51.494;6.770;2023-05-07T03:45:10;12.60;;;10.77;;
9526;SDS011;4802;51.494;6.770;2023-05-07T03:47:38;10.27;;;9.20;;
9526;SDS011;4802;51.494;6.770;2023-05-07T03:50:08;15.80;;;9.77;;
9526;SDS011;4802;51.494;6.770;2023-05-07T03:52:38;14.60;;;9.50;;
9526;SDS011;4802;51.494;6.770;2023-05-07T03:55:07;11.63;;;8.50;;
9526;SDS011;4802;51.494;6.770;2023-05-07T03:57:36;13.40;;;10.07;;
9526;SDS011;4802;51.494;6.770;2023-05-07T04:00:05;12.27;;;9.03;;
9526;SDS011;4802;51.494;6.770;2023-05-07T04:02:37;28.97;;;12.10;;
9526;SDS011;4802;51.494;6.770;2023-05-07T04:05:06;25.37;;;10.00;;
9526;SDS011;4802;51.494;6.770;2023-05-07T04:07:35;10.10;;;8.47;;
9526;SDS011;4802;51.494;6.770;2023-05-07T04:10:04;17.90;;;10.60;;
9526;SDS011;4802;51.494;6.770;2023-05-07T04:12:33;13.50;;;10.20;;
9526;SDS011;4802;51.494;6.770;2023-05-07T04:15:02;17.20;;;11.03;;
9526;SDS011;4802;51.494;6.770;2023-05-07T04:17:32;18.57;;;11.87;;
9526;SDS011;4802;51.494;6.770;2023-05-07T04:20:02;11.33;;;9.93;;
9526;SDS011;4802;51.494;6.770;2023-05-07T04:22:34;14.60;;;9.93;;
9526;SDS011;4802;51.494;6.770;2023-05-07T04:25:04;15.90;;;11.30;;
9526;SDS011;4802;51.494;6.770;2023-05-07T04:27:34;14.93;;;11.33;;
9526;SDS011;4802;51.494;6.770;2023-05-07T04:30:04;16.00;;;9.13;;
9526;SDS011;4802;51.494;6.770;2023-05-07T04:32:34;15.33;;;9.63;;
9526;SDS011;4802;51.494;6.770;2023-05-07T04:35:09;18.17;;;10.27;;
9526;SDS011;4802;51.494;6.770;2023-05-07T04:37:39;14.17;;;10.80;;
9526;SDS011;4802;51.494;6.770;2023-05-07T04:40:08;13.33;;;10.23;;
9526;SDS011;4802;51.494;6.770;2023-05-07T04:42:38;11.33;;;8.97;;
9526;SDS011;4802;51.494;6.770;2023-05-07T04:45:08;19.70;;;10.73;;
9526;SDS011;4802;51.494;6.770;2023-05-07T04:47:38;13.00;;;8.97;;
9526;SDS011;4802;51.494;6.770;2023-05-07T04:50:10;14.50;;;10.63;;
9526;SDS011;4802;51.494;6.770;2023-05-07T04:52:41;13.40;;;10.17;;
9526;SDS011;4802;51.494;6.770;2023-05-07T04:55:12;11.63;;;9.53;;
9526;SDS011;4802;51.494;6.770;2023-05-07T04:57:41;13.47;;;8.60;;
9526;SDS011;4802;51.494;6.770;2023-05-07T05:00:10;12.87;;;9.73;;
9526;SDS011;4802;51.494;6.770;2023-05-07T05:02:40;15.43;;;11.30;;
9526;SDS011;4802;51.494;6.770;2023-05-07T05:05:11;14.10;;;11.23;;
9526;SDS011;4802;51.494;6.770;2023-05-07T05:07:40;17.23;;;10.70;;
9526;SDS011;4802;51.494;6.770;2023-05-07T05:10:09;17.63;;;10.70;;
9526;SDS011;4802;51.494;6.770;2023-05-07T05:12:38;15.70;;;11.33;;
9526;SDS011;4802;51.494;6.770;2023-05-07T05:15:08;12.83;;;10.90;;
9526;SDS011;4802;51.494;6.770;2023-05-07T05:17:38;16.27;;;11.87;;
9526;SDS011;4802;51.494;6.770;2023-05-07T05:20:07;15.27;;;10.83;;
9526;SDS011;4802;51.494;6.770;2023-05-07T05:22:39;19.83;;;11.67;;
9526;SDS011;4802;51.494;6.770;2023-05-07T05:25:08;13.50;;;10.07;;
9526;SDS011;4802;51.494;6.770;2023-05-07T05:27:37;12.43;;;9.90;;
9526;SDS011;4802;51.494;6.770;2023-05-07T05:30:06;12.03;;;9.90;;
9526;SDS011;4802;51.494;6.770;2023-05-07T05:32:36;18.10;;;10.13;;
9526;SDS011;4802;51.494;6.770;2023-05-07T05:35:05;18.60;;;11.43;;
9526;SDS011;4802;51.494;6.770;2023-05-07T05:37:34;14.43;;;11.67;;
9526;SDS011;4802;51.494;6.770;2023-05-07T05:40:06;15.57;;;10.00;;
9526;SDS011;4802;51.494;6.770;2023-05-07T05:42:36;10.53;;;8.67;;
9526;SDS011;4802;51.494;6.770;2023-05-07T05:45:05;9.03;;;8.10;;
9526;SDS011;4802;51.494;6.770;2023-05-07T05:47:34;12.97;;;8.60;;
9526;SDS011;4802;51.494;6.770;2023-05-07T05:50:03;12.33;;;8.07;;
9526;SDS011;4802;51.494;6.770;2023-05-07T05:52:33;10.87;;;6.50;;
9526;SDS011;4802;51.494;6.770;2023-05-07T05:55:02;10.17;;;6.57;;
9526;SDS011;4802;51.494;6.770;2023-05-07T05:57:32;7.80;;;6.60;;
9526;SDS011;4802;51.494;6.770;2023-05-07T06:00:01;14.30;;;8.20;;
9526;SDS011;4802;51.494;6.770;2023-05-07T06:02:31;7.83;;;6.97;;
9526;SDS011;4802;51.494;6.770;2023-05-07T06:05:00;8.70;;;6.97;;
9526;SDS011;4802;51.494;6.770;2023-05-07T06:07:28;8.00;;;6.27;;
9526;SDS011;4802;51.494;6.770;2023-05-07T06:09:57;9.63;;;6.40;;
9526;SDS011;4802;51.494;6.770;2023-05-07T06:12:26;11.70;;;7.63;;
9526;SDS011;4802;51.494;6.770;2023-05-07T06:14:57;7.00;;;6.30;;
9526;SDS011;4802;51.494;6.770;2023-05-07T06:17:26;8.37;;;6.40;;
9526;SDS011;4802;51.494;6.770;2023-05-07T06:19:55;8.00;;;6.10;;
9526;SDS011;4802;51.494;6.770;2023-05-07T06:22:23;6.23;;;5.17;;
9526;SDS011;4802;51.494;6.770;2023-05-07T06:24:52;5.90;;;5.37;;
9526;SDS011;4802;51.494;6.770;2023-05-07T06:27:21;6.77;;;6.03;;
9526;SDS011;4802;51.494;6.770;2023-05-07T06:29:51;13.00;;;5.60;;
9526;SDS011;4802;51.494;6.770;2023-05-07T06:32:21;13.67;;;5.73;;
9526;SDS011;4802;51.494;6.770;2023-05-07T06:34:50;7.90;;;5.37;;
9526;SDS011;4802;51.494;6.770;2023-05-07T06:37:19;6.40;;;4.67;;
9526;SDS011;4802;51.494;6.770;2023-05-07T06:39:47;5.07;;;4.63;;
9526;SDS011;4802;51.494;6.770;2023-05-07T06:42:16;6.20;;;4.87;;
9526;SDS011;4802;51.494;6.770;2023-05-07T06:44:45;4.60;;;4.13;;
9526;SDS011;4802;51.494;6.770;2023-05-07T06:47:14;4.70;;;4.30;;
9526;SDS011;4802;51.494;6.770;2023-05-07T06:49:44;7.57;;;4.43;;
9526;SDS011;4802;51.494;6.770;2023-05-07T06:52:13;4.90;;;4.23;;
9526;SDS011;4802;51.494;6.770;2023-05-07T06:54:43;5.00;;;3.70;;
9526;SDS011;4802;51.494;6.770;2023-05-07T06:57:12;3.33;;;2.90;;
9526;SDS011;4802;51.494;6.770;2023-05-07T06:59:40;7.00;;;3.83;;
9526;SDS011;4802;51.494;6.770;2023-05-07T07:02:10;4.00;;;3.60;;
9526;SDS011;4802;51.494;6.770;2023-05-07T07:04:39;9.33;;;4.00;;
9526;SDS011;4802;51.494;6.770;2023-05-07T07:07:10;3.80;;;3.47;;
9526;SDS011;4802;51.494;6.770;2023-05-07T07:09:38;7.70;;;4.40;;
9526;SDS011;4802;51.494;6.770;2023-05-07T07:12:07;4.30;;;3.63;;
9526;SDS011;4802;51.494;6.770;2023-05-07T07:14:37;8.50;;;3.60;;
9526;SDS011;4802;51.494;6.770;2023-05-07T07:17:07;5.73;;;4.67;;
9526;SDS011;4802;51.494;6.770;2023-05-07T07:19:36;7.83;;;3.50;;
9526;SDS011;4802;51.494;6.770;2023-05-07T07:22:06;2.97;;;2.40;;
9526;SDS011;4802;51.494;6.770;2023-05-07T07:24:36;4.70;;;2.83;;
9526;SDS011;4802;51.494;6.770;2023-05-07T07:27:05;4.13;;;3.07;;
9526;SDS011;4802;51.494;6.770;2023-05-07T07:29:34;3.63;;;3.20;;
9526;SDS011;4802;51.494;6.770;2023-05-07T07:32:04;6.73;;;3.00;;
9526;SDS011;4802;51.494;6.770;2023-05-07T07:34:33;2.83;;;2.63;;
9526;SDS011;4802;51.494;6.770;2023-05-07T07:37:02;3.07;;;2.83;;
9526;SDS011;4802;51.494;6.770;2023-05-07T07:39:32;2.37;;;2.00;;
9526;SDS011;4802;51.494;6.770;2023-05-07T07:42:03;5.37;;;3.17;;
9526;SDS011;4802;51.494;6.770;2023-05-07T07:44:32;3.10;;;1.97;;
9526;SDS011;4802;51.494;6.770;2023-05-07T07:47:01;1.97;;;1.87;;
9526;SDS011;4802;51.494;6.770;2023-05-07T07:49:30;5.67;;;3.60;;
9526;SDS011;4802;51.494;6.770;2023-05-07T07:51:59;2.73;;;2.53;;
9526;SDS011;4802;51.494;6.770;2023-05-07T07:54:28;2.83;;;2.60;;
9526;SDS011;4802;51.494;6.770;2023-05-07T07:56:57;5.20;;;3.23;;
9526;SDS011;4802;51.494;6.770;2023-05-07T07:59:27;4.17;;;3.30;;
9526;SDS011;4802;51.494;6.770;2023-05-07T08:01:56;3.60;;;2.43;;
9526;SDS011;4802;51.494;6.770;2023-05-07T08:04:26;3.47;;;3.17;;
9526;SDS011;4802;51.494;6.770;2023-05-07T08:06:57;3.73;;;3.17;;
9526;SDS011;4802;51.494;6.770;2023-05-07T08:09:26;2.30;;;2.10;;
9526;SDS011;4802;51.494;6.770;2023-05-07T08:11:56;3.73;;;2.50;;
9526;SDS011;4802;51.494;6.770;2023-05-07T08:14:25;1.97;;;1.80;;
9526;SDS011;4802;51.494;6.770;2023-05-07T08:16:56;3.20;;;2.87;;
9526;SDS011;4802;51.494;6.770;2023-05-07T08:19:26;2.73;;;2.50;;
9526;SDS011;4802;51.494;6.770;2023-05-07T08:21:55;2.90;;;2.00;;
9526;SDS011;4802;51.494;6.770;2023-05-07T08:24:24;2.57;;;2.37;;
9526;SDS011;4802;51.494;6.770;2023-05-07T08:26:53;1.60;;;1.50;;
9526;SDS011;4802;51.494;6.770;2023-05-07T08:29:22;2.50;;;1.50;;
9526;SDS011;4802;51.494;6.770;2023-05-07T08:31:51;1.20;;;1.20;;
9526;SDS011;4802;51.494;6.770;2023-05-07T08:34:22;2.90;;;1.83;;
9526;SDS011;4802;51.494;6.770;2023-05-07T08:36:51;1.63;;;1.53;;
9526;SDS011;4802;51.494;6.770;2023-05-07T08:39:23;1.93;;;1.63;;
9526;SDS011;4802;51.494;6.770;2023-05-07T08:41:52;0.80;;;0.80;;
9526;SDS011;4802;51.494;6.770;2023-05-07T08:44:23;1.60;;;1.53;;
9526;SDS011;4802;51.494;6.770;2023-05-07T08:46:56;1.40;;;1.23;;
9526;SDS011;4802;51.494;6.770;2023-05-07T08:49:28;1.90;;;1.30;;
9526;SDS011;4802;51.494;6.770;2023-05-07T08:51:57;2.47;;;2.27;;
9526;SDS011;4802;51.494;6.770;2023-05-07T08:54:26;1.77;;;1.40;;
9526;SDS011;4802;51.494;6.770;2023-05-07T08:56:56;4.20;;;2.60;;
9526;SDS011;4802;51.494;6.770;2023-05-07T08:59:26;3.33;;;1.40;;
9526;SDS011;4802;51.494;6.770;2023-05-07T09:01:55;2.07;;;1.97;;
9526;SDS011;4802;51.494;6.770;2023-05-07T09:04:25;1.20;;;1.10;;
9526;SDS011;4802;51.494;6.770;2023-05-07T09:06:55;1.70;;;1.60;;
9526;SDS011;4802;51.494;6.770;2023-05-07T09:09:31;1.50;;;1.37;;
9526;SDS011;4802;51.494;6.770;2023-05-07T09:12:02;2.10;;;1.67;;
9526;SDS011;4802;51.494;6.770;2023-05-07T09:14:30;1.50;;;1.40;;
9526;SDS011;4802;51.494;6.770;2023-05-07T09:17:00;1.50;;;1.40;;
9526;SDS011;4802;51.494;6.770;2023-05-07T09:19:28;1.77;;;1.17;;
9526;SDS011;4802;51.494;6.770;2023-05-07T09:22:00;2.00;;;1.27;;
9526;SDS011;4802;51.494;6.770;2023-05-07T09:24:29;1.30;;;1.23;;
9526;SDS011;4802;51.494;6.770;2023-05-07T09:27:01;4.37;;;1.60;;
9526;SDS011;4802;51.494;6.770;2023-05-07T09:29:30;1.30;;;1.00;;
9526;SDS011;4802;51.494;6.770;2023-05-07T09:32:02;3.37;;;1.43;;
9526;SDS011;4802;51.494;6.770;2023-05-07T09:34:31;5.10;;;1.50;;
9526;SDS011;4802;51.494;6.770;2023-05-07T09:37:03;1.23;;;1.10;;
9526;SDS011;4802;51.494;6.770;2023-05-07T09:39:39;1.90;;;1.80;;
9526;SDS011;4802;51.494;6.770;2023-05-07T09:42:08;1.90;;;1.60;;
9526;SDS011;4802;51.494;6.770;2023-05-07T09:44:39;2.10;;;1.77;;
9526;SDS011;4802;51.494;6.770;2023-05-07T09:47:08;1.47;;;1.20;;
9526;SDS011;4802;51.494;6.770;2023-05-07T09:49:39;1.27;;;1.20;;
9526;SDS011;4802;51.494;6.770;2023-05-07T09:52:10;2.20;;;1.50;;
9526;SDS011;4802;51.494;6.770;2023-05-07T09:54:42;2.17;;;2.07;;
9526;SDS011;4802;51.494;6.770;2023-05-07T09:57:12;1.40;;;1.30;;
9526;SDS011;4802;51.494;6.770;2023-05-07T09:59:43;1.37;;;1.27;;
9526;SDS011;4802;51.494;6.770;2023-05-07T10:02:12;1.20;;;1.17;;
9526;SDS011;4802;51.494;6.770;2023-05-07T10:04:43;1.50;;;1.23;;
9526;SDS011;4802;51.494;6.770;2023-05-07T10:07:16;13.80;;;2.83;;
9526;SDS011;4802;51.494;6.770;2023-05-07T10:09:45;2.20;;;1.60;;
9526;SDS011;4802;51.494;6.770;2023-05-07T10:12:17;1.00;;;1.00;;
9526;SDS011;4802;51.494;6.770;2023-05-07T10:14:49;1.20;;;1.20;;
9526;SDS011;4802;51.494;6.770;2023-05-07T10:17:18;1.67;;;1.57;;
9526;SDS011;4802;51.494;6.770;2023-05-07T10:19:48;1.33;;;1.33;;
9526;SDS011;4802;51.494;6.770;2023-05-07T10:22:19;1.60;;;1.50;;
9526;SDS011;4802;51.494;6.770;2023-05-07T10:24:49;2.50;;;2.30;;
9526;SDS011;4802;51.494;6.770;2023-05-07T10:27:21;1.90;;;1.80;;
9526;SDS011;4802;51.494;6.770;2023-05-07T10:29:57;2.80;;;1.30;;
9526;SDS011;4802;51.494;6.770;2023-05-07T10:32:33;1.63;;;1.53;;
9526;SDS011;4802;51.494;6.770;2023-05-07T10:35:06;2.33;;;2.07;;
9526;SDS011;4802;51.494;6.770;2023-05-07T10:37:39;2.80;;;2.00;;
9526;SDS011;4802;51.494;6.770;2023-05-07T10:40:11;2.13;;;1.93;;
9526;SDS011;4802;51.494;6.770;2023-05-07T10:42:54;1.50;;;1.40;;
9526;SDS011;4802;51.494;6.770;2023-05-07T10:45:25;1.73;;;1.63;;
9526;SDS011;4802;51.494;6.770;2023-05-07T10:48:09;1.90;;;1.60;;
9526;SDS011;4802;51.494;6.770;2023-05-07T10:50:43;3.13;;;1.47;;
9526;SDS011;4802;51.494;6.770;2023-05-07T10:56:28;2.63;;;2.20;;
9526;SDS011;4802;51.494;6.770;2023-05-07T11:01:50;2.10;;;1.97;;
9526;SDS011;4802;51.494;6.770;2023-05-07T11:04:20;1.20;;;1.20;;
9526;SDS011;4802;51.494;6.770;2023-05-07T11:15:35;3.80;;;1.83;;
9526;SDS011;4802;51.494;6.770;2023-05-07T11:18:05;1.50;;;1.40;;
9526;SDS011;4802;51.494;6.770;2023-05-07T11:20:47;1.63;;;1.30;;
9526;SDS011;4802;51.494;6.770;2023-05-07T11:26:29;1.97;;;1.53;;
9526;SDS011;4802;51.494;6.770;2023-05-07T11:28:59;1.67;;;1.57;;
9526;SDS011;4802;51.494;6.770;2023-05-07T11:31:30;1.83;;;1.40;;
9526;SDS011;4802;51.494;6.770;2023-05-07T11:33:59;4.67;;;2.13;;
9526;SDS011;4802;51.494;6.770;2023-05-07T11:36:30;1.67;;;1.57;;
9526;SDS011;4802;51.494;6.770;2023-05-07T11:38:59;1.77;;;1.70;;
9526;SDS011;4802;51.494;6.770;2023-05-07T11:41:33;2.57;;;1.93;;
9526;SDS011;4802;51.494;6.770;2023-05-07T11:44:02;1.83;;;1.17;;
9526;SDS011;4802;51.494;6.770;2023-05-07T11:46:33;3.90;;;2.00;;
9526;SDS011;4802;51.494;6.770;2023-05-07T11:49:04;1.80;;;1.70;;
9526;SDS011;4802;51.494;6.770;2023-05-07T11:51:40;1.47;;;1.37;;
9526;SDS011;4802;51.494;6.770;2023-05-07T11:54:09;1.80;;;1.70;;
9526;SDS011;4802;51.494;6.770;2023-05-07T11:56:40;2.17;;;1.97;;
9526;SDS011;4802;51.494;6.770;2023-05-07T11:59:09;1.83;;;1.70;;
9526;SDS011;4802;51.494;6.770;2023-05-07T12:01:42;4.10;;;1.60;;
9526;SDS011;4802;51.494;6.770;2023-05-07T12:04:21;1.10;;;1.00;;
9526;SDS011;4802;51.494;6.770;2023-05-07T12:06:53;2.07;;;1.97;;
9526;SDS011;4802;51.494;6.770;2023-05-07T12:09:24;1.50;;;1.40;;
9526;SDS011;4802;51.494;6.770;2023-05-07T12:11:54;1.47;;;1.37;;
9526;SDS011;4802;51.494;6.770;2023-05-07T12:14:26;1.77;;;1.57;;
9526;SDS011;4802;51.494;6.770;2023-05-07T12:16:58;2.37;;;2.13;;
9526;SDS011;4802;51.494;6.770;2023-05-07T12:19:30;1.40;;;1.30;;
9526;SDS011;4802;51.494;6.770;2023-05-07T12:22:05;1.77;;;1.70;;
9526;SDS011;4802;51.494;6.770;2023-05-07T12:24:46;2.00;;;1.80;;
9526;SDS011;4802;51.494;6.770;2023-05-07T12:27:15;2.80;;;2.57;;
9526;SDS011;4802;51.494;6.770;2023-05-07T12:29:44;1.87;;;1.53;;
9526;SDS011;4802;51.494;6.770;2023-05-07T12:32:15;1.20;;;1.03;;
9526;SDS011;4802;51.494;6.770;2023-05-07T12:34:45;6.87;;;2.03;;
9526;SDS011;4802;51.494;6.770;2023-05-07T12:37:13;1.10;;;1.00;;
9526;SDS011;4802;51.494;6.770;2023-05-07T12:39:44;2.53;;;1.87;;
9526;SDS011;4802;51.494;6.770;2023-05-07T12:42:14;3.43;;;1.03;;
9526;SDS011;4802;51.494;6.770;2023-05-07T12:44:47;1.43;;;1.33;;
9526;SDS011;4802;51.494;6.770;2023-05-07T12:47:19;5.13;;;2.43;;
9526;SDS011;4802;51.494;6.770;2023-05-07T12:49:49;3.20;;;1.90;;
9526;SDS011;4802;51.494;6.770;2023-05-07T12:52:21;2.63;;;2.43;;
9526;SDS011;4802;51.494;6.770;2023-05-07T12:54:51;1.83;;;1.67;;
9526;SDS011;4802;51.494;6.770;2023-05-07T12:57:38;1.80;;;1.70;;
9526;SDS011;4802;51.494;6.770;2023-05-07T13:00:10;1.50;;;1.30;;
9526;SDS011;4802;51.494;6.770;2023-05-07T13:02:44;1.43;;;1.43;;
9526;SDS011;4802;51.494;6.770;2023-05-07T13:05:14;1.60;;;1.50;;
9526;SDS011;4802;51.494;6.770;2023-05-07T13:07:52;2.07;;;1.60;;
9526;SDS011;4802;51.494;6.770;2023-05-07T13:10:31;1.50;;;1.40;;
9526;SDS011;4802;51.494;6.770;2023-05-07T13:13:18;1.70;;;1.60;;
9526;SDS011;4802;51.494;6.770;2023-05-07T13:15:49;6.60;;;2.00;;
9526;SDS011;4802;51.494;6.770;2023-05-07T13:18:40;1.47;;;1.37;;
9526;SDS011;4802;51.494;6.770;2023-05-07T13:21:10;2.17;;;1.40;;
9526;SDS011;4802;51.494;6.770;2023-05-07T13:23:49;1.87;;;1.73;;
9526;SDS011;4802;51.494;6.770;2023-05-07T13:26:18;2.10;;;1.97;;
9526;SDS011;4802;51.494;6.770;2023-05-07T13:28:52;1.77;;;1.67;;
9526;SDS011;4802;51.494;6.770;2023-05-07T13:31:22;3.60;;;2.37;;
9526;SDS011;4802;51.494;6.770;2023-05-07T13:33:52;3.67;;;1.90;;
9526;SDS011;4802;51.494;6.770;2023-05-07T13:36:22;1.90;;;1.80;;
9526;SDS011;4802;51.494;6.770;2023-05-07T13:38:52;1.80;;;1.70;;
9526;SDS011;4802;51.494;6.770;2023-05-07T13:41:24;2.20;;;2.10;;
9526;SDS011;4802;51.494;6.770;2023-05-07T13:43:54;3.00;;;2.00;;
9526;SDS011;4802;51.494;6.770;2023-05-07T13:46:26;2.57;;;2.37;;
9526;SDS011;4802;51.494;6.770;2023-05-07T13:49:08;2.87;;;2.50;;
9526;SDS011;4802;51.494;6.770;2023-05-07T13:51:39;2.50;;;2.00;;
9526;SDS011;4802;51.494;6.770;2023-05-07T13:54:14;2.90;;;2.70;;
9526;SDS011;4802;51.494;6.770;2023-05-07T13:56:45;2.03;;;1.93;;
9526;SDS011;4802;51.494;6.770;2023-05-07T13:59:16;3.97;;;2.40;;
9526;SDS011;4802;51.494;6.770;2023-05-07T14:01:50;3.53;;;3.23;;
9526;SDS011;4802;51.494;6.770;2023-05-07T14:04:21;1.73;;;1.63;;
9526;SDS011;4802;51.494;6.770;2023-05-07T14:06:52;2.20;;;2.10;;
9526;SDS011;4802;51.494;6.770;2023-05-07T14:09:22;3.60;;;3.30;;
9526;SDS011;4802;51.494;6.770;2023-05-07T14:11:52;2.70;;;2.50;;
9526;SDS011;4802;51.494;6.770;2023-05-07T14:14:21;4.33;;;3.03;;
9526;SDS011;4802;51.494;6.770;2023-05-07T14:16:53;3.17;;;2.37;;
9526;SDS011;4802;51.494;6.770;2023-05-07T14:19:25;5.80;;;3.13;;
9526;SDS011;4802;51.494;6.770;2023-05-07T14:21:57;3.10;;;2.37;;
9526;SDS011;4802;51.494;6.770;2023-05-07T14:24:41;2.80;;;2.60;;
9526;SDS011;4802;51.494;6.770;2023-05-07T14:27:16;3.17;;;2.97;;
9526;SDS011;4802;51.494;6.770;2023-05-07T14:30:02;2.43;;;2.33;;
9526;SDS011;4802;51.494;6.770;2023-05-07T14:32:35;3.47;;;2.17;;
9526;SDS011;4802;51.494;6.770;2023-05-07T14:35:06;3.90;;;3.57;;
9526;SDS011;4802;51.494;6.770;2023-05-07T14:37:35;5.60;;;3.00;;
9526;SDS011;4802;51.494;6.770;2023-05-07T14:40:05;4.30;;;2.37;;
9526;SDS011;4802;51.494;6.770;2023-05-07T14:42:35;2.37;;;2.27;;
9526;SDS011;4802;51.494;6.770;2023-05-07T14:45:04;2.17;;;2.07;;
9526;SDS011;4802;51.494;6.770;2023-05-07T14:47:33;2.43;;;2.30;;
9526;SDS011;4802;51.494;6.770;2023-05-07T14:50:03;3.37;;;1.77;;
9526;SDS011;4802;51.494;6.770;2023-05-07T14:52:34;4.50;;;2.17;;
9526;SDS011;4802;51.494;6.770;2023-05-07T14:55:03;5.80;;;2.27;;
9526;SDS011;4802;51.494;6.770;2023-05-07T14:57:32;2.90;;;2.70;;
9526;SDS011;4802;51.494;6.770;2023-05-07T15:00:01;2.40;;;2.20;;
9526;SDS011;4802;51.494;6.770;2023-05-07T15:02:31;3.50;;;3.20;;
9526;SDS011;4802;51.494;6.770;2023-05-07T15:05:01;2.53;;;2.33;;
9526;SDS011;4802;51.494;6.770;2023-05-07T15:07:31;5.70;;;3.60;;
9526;SDS011;4802;51.494;6.770;2023-05-07T15:10:03;6.60;;;2.83;;
9526;SDS011;4802;51.494;6.770;2023-05-07T15:12:34;3.80;;;3.07;;
9526;SDS011;4802;51.494;6.770;2023-05-07T15:15:22;6.07;;;3.97;;
9526;SDS011;4802;51.494;6.770;2023-05-07T15:18:20;3.70;;;2.60;;
9526;SDS011;4802;51.494;6.770;2023-05-07T15:20:52;4.07;;;2.57;;
9526;SDS011;4802;51.494;6.770;2023-05-07T15:23:35;3.23;;;1.97;;
9526;SDS011;4802;51.494;6.770;2023-05-07T15:26:10;3.57;;;2.30;;
9526;SDS011;4802;51.494;6.770;2023-05-07T15:28:41;3.03;;;2.73;;
9526;SDS011;4802;51.494;6.770;2023-05-07T15:31:10;3.77;;;3.03;;
9526;SDS011;4802;51.494;6.770;2023-05-07T15:33:55;3.60;;;3.03;;
9526;SDS011;4802;51.494;6.770;2023-05-07T15:36:30;6.83;;;5.60;;
9526;SDS011;4802;51.494;6.770;2023-05-07T15:39:01;6.20;;;3.90;;
9526;SDS011;4802;51.494;6.770;2023-05-07T15:41:33;4.57;;;3.87;;
9526;SDS011;4802;51.494;6.770;2023-05-07T15:44:03;3.90;;;3.10;;
9526;SDS011;4802;51.494;6.770;2023-05-07T15:46:35;4.20;;;3.87;;
9526;SDS011;4802;51.494;6.770;2023-05-07T15:49:04;5.60;;;3.53;;
9526;SDS011;4802;51.494;6.770;2023-05-07T15:51:36;5.53;;;4.67;;
9526;SDS011;4802;51.494;6.770;2023-05-07T15:54:05;5.03;;;3.40;;
9526;SDS011;4802;51.494;6.770;2023-05-07T15:56:36;6.07;;;4.23;;
9526;SDS011;4802;51.494;6.770;2023-05-07T15:59:05;3.40;;;3.10;;
9526;SDS011;4802;51.494;6.770;2023-05-07T16:01:34;6.40;;;5.10;;
9526;SDS011;4802;51.494;6.770;2023-05-07T16:04:02;5.03;;;3.50;;
9526;SDS011;4802;51.494;6.770;2023-05-07T16:06:32;5.27;;;4.77;;
9526;SDS011;4802;51.494;6.770;2023-05-07T16:09:01;4.70;;;4.40;;
9526;SDS011;4802;51.494;6.770;2023-05-07T16:11:30;4.80;;;4.43;;
9526;SDS011;4802;51.494;6.770;2023-05-07T16:14:02;13.80;;;4.50;;